Time;durP1;ratioP1;P1;durP2;ratioP2;P2;SDS_P1;SDS_P2;PMS_P1;PMS_P2;Temp;Humidity;BMP_temperature;BMP_pressure;BME280_temperature;BME280_humidity;BME280_pressure;Samples;Min_cycle;Max_cycle;Signal;HPM_P1;HPM_P2
2021/04/07 00:01:05;;;;;;;5.07;2.30;;;1.90;62.40;;;;;;5086542;28;20032;-64
2021/04/07 00:03:33;;;;;;;3.33;2.60;;;1.90;62.40;;;;;;5080007;28;20078;-64
2021/04/07 00:06:06;;;;;;;3.28;2.30;;;1.90;62.60;;;;;;5086354;28;20032;-64
2021/04/07 00:08:37;;;;;;;5.63;2.63;;;1.90;62.50;;;;;;5086734;28;20069;-65
2021/04/07 00:11:04;;;;;;;3.80;2.50;;;1.90;62.50;;;;;;5082890;28;20031;-64
2021/04/07 00:13:32;;;;;;;5.25;2.40;;;1.90;62.40;;;;;;5086530;28;20280;-63
2021/04/07 00:16:03;;;;;;;3.10;2.42;;;1.90;62.50;;;;;;5085932;28;20064;-64
2021/04/07 00:18:28;;;;;;;2.30;2.05;;;1.90;62.40;;;;;;5087897;28;20545;-63
2021/04/07 00:20:58;;;;;;;4.05;2.65;;;1.90;62.40;;;;;;5084959;28;20063;-64
2021/04/07 00:23:29;;;;;;;2.45;2.25;;;1.80;62.30;;;;;;5088745;28;20036;-64
2021/04/07 00:25:54;;;;;;;2.50;2.30;;;1.80;62.40;;;;;;5087516;28;20543;-64
2021/04/07 00:28:27;;;;;;;4.93;2.25;;;1.80;62.30;;;;;;5084826;28;20116;-64
2021/04/07 00:30:58;;;;;;;4.72;2.35;;;1.80;62.50;;;;;;5084704;28;20090;-63
2021/04/07 00:33:28;;;;;;;4.63;2.33;;;1.80;62.50;;;;;;5088442;28;20032;-63
2021/04/07 00:35:59;;;;;;;2.72;2.42;;;1.80;62.30;;;;;;5086487;28;20105;-63
2021/04/07 00:38:26;;;;;;;3.92;2.78;;;1.80;62.30;;;;;;5082070;28;20028;-64
2021/04/07 00:40:54;;;;;;;3.03;2.33;;;1.80;62.60;;;;;;5087014;28;20036;-64
2021/04/07 00:43:20;;;;;;;3.50;2.53;;;1.80;62.50;;;;;;5087600;28;20032;-64
2021/04/07 00:45:48;;;;;;;3.53;2.72;;;1.80;62.50;;;;;;5087668;28;20024;-63
2021/04/07 00:48:17;;;;;;;4.50;2.67;;;1.80;62.80;;;;;;5086870;28;20040;-64
2021/04/07 00:50:47;;;;;;;4.22;2.95;;;1.70;62.80;;;;;;5087836;28;20040;-65
2021/04/07 00:53:17;;;;;;;3.42;2.60;;;1.70;63.20;;;;;;5085318;28;20463;-63
2021/04/07 00:55:50;;;;;;;2.95;2.47;;;1.70;63.20;;;;;;5086684;28;20048;-64
2021/04/07 00:58:16;;;;;;;3.83;2.80;;;1.70;63.00;;;;;;5084674;28;20126;-64
2021/04/07 01:00:45;;;;;;;2.97;2.65;;;1.60;63.10;;;;;;5085308;28;20043;-64
2021/04/07 01:03:15;;;;;;;5.55;2.63;;;1.60;63.20;;;;;;5085717;28;20032;-63
2021/04/07 01:05:46;;;;;;;3.47;2.80;;;1.60;63.50;;;;;;5087240;28;20435;-62
2021/04/07 01:08:14;;;;;;;4.57;2.72;;;1.60;63.30;;;;;;5082608;28;20047;-63
2021/04/07 01:10:44;;;;;;;2.85;2.22;;;1.50;63.40;;;;;;5074679;28;20025;-64
2021/04/07 01:13:17;;;;;;;5.25;2.47;;;1.60;63.30;;;;;;5085217;28;20036;-64
2021/04/07 01:15:48;;;;;;;4.93;2.67;;;1.60;63.70;;;;;;5085433;28;20044;-60
2021/04/07 01:18:19;;;;;;;3.72;2.53;;;1.60;63.60;;;;;;5087485;28;20028;-64
2021/04/07 01:20:50;;;;;;;3.10;2.35;;;1.60;63.90;;;;;;5085348;28;20036;-63
2021/04/07 01:23:18;;;;;;;4.63;2.95;;;1.60;63.70;;;;;;5081883;28;20043;-63
2021/04/07 01:25:46;;;;;;;5.55;2.95;;;1.60;64.00;;;;;;5084883;28;20032;-64
2021/04/07 01:28:13;;;;;;;4.60;2.83;;;1.60;64.60;;;;;;5087154;28;20036;-64
2021/04/07 01:30:49;;;;;;;5.25;2.72;;;1.50;65.40;;;;;;5087090;28;20024;-63
2021/04/07 01:33:27;;;;;;;3.53;2.80;;;1.50;66.40;;;;;;5085101;28;20515;-64
2021/04/07 01:35:53;;;;;;;3.38;2.78;;;1.50;67.10;;;;;;5085805;28;20036;-65
2021/04/07 01:38:29;;;;;;;5.32;2.83;;;1.50;67.10;;;;;;5084646;28;20036;-63
2021/04/07 01:40:58;;;;;;;6.40;2.90;;;1.40;67.70;;;;;;5084397;28;20532;-64
2021/04/07 01:43:30;;;;;;;2.95;2.65;;;1.40;67.50;;;;;;5082754;28;20500;-64
2021/04/07 01:46:01;;;;;;;5.40;3.00;;;1.40;67.50;;;;;;5087244;28;20039;-64
2021/04/07 01:48:31;;;;;;;5.80;3.03;;;1.30;67.50;;;;;;5086466;28;20554;-64
2021/04/07 01:50:57;;;;;;;3.08;2.78;;;1.30;68.00;;;;;;5085979;28;20068;-64
2021/04/07 01:53:27;;;;;;;4.65;3.38;;;1.30;68.00;;;;;;5085406;28;20035;-64
2021/04/07 01:55:55;;;;;;;3.90;3.28;;;1.30;68.40;;;;;;5085548;28;20649;-64
2021/04/07 01:58:23;;;;;;;4.85;3.22;;;1.30;68.20;;;;;;5079123;28;20043;-64
2021/04/07 02:00:53;;;;;;;3.95;3.00;;;1.30;69.00;;;;;;5086455;28;20032;-64
2021/04/07 02:03:21;;;;;;;3.42;2.90;;;1.30;69.50;;;;;;5084532;28;20028;-64
2021/04/07 02:05:52;;;;;;;5.18;2.65;;;1.30;69.10;;;;;;5086437;28;20039;-64
2021/04/07 02:08:18;;;;;;;4.20;2.80;;;1.30;68.40;;;;;;5085328;28;20028;-65
2021/04/07 02:10:50;;;;;;;6.45;2.53;;;1.30;68.90;;;;;;5080253;28;20124;-65
2021/04/07 02:13:18;;;;;;;3.00;2.75;;;1.30;68.90;;;;;;5082979;28;20032;-64
2021/04/07 02:15:51;;;;;;;4.15;2.85;;;1.30;68.60;;;;;;5086285;28;20556;-61
2021/04/07 02:18:19;;;;;;;4.68;2.58;;;1.30;68.50;;;;;;5086938;28;20032;-64
2021/04/07 02:20:47;;;;;;;3.33;2.53;;;1.30;68.60;;;;;;5085734;28;20123;-63
2021/04/07 02:23:13;;;;;;;3.13;2.50;;;1.30;68.30;;;;;;5082562;28;20032;-65
2021/04/07 02:25:40;;;;;;;2.60;2.40;;;1.20;68.10;;;;;;5084488;28;20035;-64
2021/04/07 02:28:06;;;;;;;4.00;2.45;;;1.20;68.00;;;;;;5085916;28;20036;-65
2021/04/07 02:30:34;;;;;;;3.30;2.53;;;1.20;68.00;;;;;;5084590;28;20454;-64
2021/04/07 02:33:02;;;;;;;2.50;2.22;;;1.10;67.90;;;;;;5085565;28;20063;-64
2021/04/07 02:35:35;;;;;;;2.85;2.30;;;1.10;67.90;;;;;;5084402;28;20032;-64
2021/04/07 02:38:02;;;;;;;3.05;2.30;;;1.10;68.20;;;;;;5082968;28;20036;-64
2021/04/07 02:40:33;;;;;;;2.45;2.20;;;1.10;68.00;;;;;;5081571;28;20032;-64
2021/04/07 02:43:01;;;;;;;4.18;2.42;;;1.00;68.00;;;;;;5085381;28;20036;-64
2021/04/07 02:45:31;;;;;;;3.13;2.45;;;1.00;68.40;;;;;;5082246;28;20033;-65
2021/04/07 02:47:57;;;;;;;3.22;2.30;;;0.90;68.50;;;;;;5086494;28;20040;-64
2021/04/07 02:50:28;;;;;;;3.28;2.58;;;0.90;68.70;;;;;;5084549;28;20042;-62
2021/04/07 02:52:56;;;;;;;2.97;2.55;;;0.90;69.00;;;;;;5084951;28;20037;-64
2021/04/07 02:55:24;;;;;;;3.80;2.55;;;0.90;68.90;;;;;;5082527;28;20127;-64
2021/04/07 02:57:54;;;;;;;3.05;2.30;;;0.90;69.10;;;;;;5084996;28;20412;-64
2021/04/07 03:00:28;;;;;;;2.72;2.25;;;0.90;69.00;;;;;;5081806;28;20034;-64
2021/04/07 03:02:56;;;;;;;3.45;2.30;;;0.90;69.10;;;;;;5090181;28;20028;-64
2021/04/07 03:05:24;;;;;;;2.20;1.95;;;0.90;69.10;;;;;;5087972;28;20032;-65
2021/04/07 03:07:57;;;;;;;3.10;2.13;;;0.90;69.10;;;;;;5089246;28;20056;-64
2021/04/07 03:10:25;;;;;;;3.65;2.28;;;0.90;69.10;;;;;;5075780;28;20136;-64
2021/04/07 03:12:53;;;;;;;3.95;2.30;;;0.80;69.10;;;;;;5079910;28;20063;-63
2021/04/07 03:15:24;;;;;;;4.03;2.42;;;0.80;69.30;;;;;;5089217;28;20043;-65
2021/04/07 03:17:49;;;;;;;2.47;2.22;;;0.80;69.10;;;;;;5090271;28;20119;-65
2021/04/07 03:20:19;;;;;;;3.20;2.35;;;0.80;69.30;;;;;;5088106;28;20115;-63
2021/04/07 03:22:47;;;;;;;3.75;2.40;;;0.80;69.60;;;;;;5088550;28;20032;-64
2021/04/07 03:25:13;;;;;;;4.30;2.58;;;0.80;69.30;;;;;;5087808;28;20656;-64
2021/04/07 03:27:41;;;;;;;4.53;2.38;;;0.70;69.10;;;;;;5087389;28;20032;-65
2021/04/07 03:30:10;;;;;;;3.47;2.70;;;0.70;69.10;;;;;;5087511;28;20032;-61
2021/04/07 03:32:40;;;;;;;3.47;2.60;;;0.70;69.30;;;;;;5088942;28;20035;-61
2021/04/07 03:35:06;;;;;;;2.65;2.38;;;0.70;69.20;;;;;;5089580;28;20038;-64
2021/04/07 03:37:36;;;;;;;4.90;2.60;;;0.70;68.90;;;;;;5081311;28;20032;-64
2021/04/07 03:40:03;;;;;;;3.55;2.33;;;0.70;69.20;;;;;;5084615;28;20028;-65
2021/04/07 03:42:28;;;;;;;4.57;2.88;;;0.70;69.00;;;;;;5078190;28;21234;-64
2021/04/07 03:44:56;;;;;;;3.33;2.70;;;0.70;69.10;;;;;;5078722;28;20085;-64
2021/04/07 03:47:24;;;;;;;3.42;2.92;;;0.80;68.80;;;;;;5078467;28;20038;-64
2021/04/07 03:49:52;;;;;;;5.40;2.50;;;0.80;69.30;;;;;;5081676;28;20142;-64
2021/04/07 03:52:23;;;;;;;3.17;2.55;;;0.80;69.00;;;;;;5081256;28;20524;-65
2021/04/07 03:54:56;;;;;;;2.80;2.30;;;0.80;68.40;;;;;;5082373;28;20050;-64
2021/04/07 03:57:25;;;;;;;4.43;2.80;;;0.80;68.60;;;;;;5077797;28;20036;-64
2021/04/07 03:59:57;;;;;;;4.00;2.33;;;0.80;68.40;;;;;;5075643;28;20270;-64
2021/04/07 04:02:25;;;;;;;5.38;2.47;;;0.80;68.20;;;;;;5075566;28;20119;-65
2021/04/07 04:04:53;;;;;;;2.92;2.17;;;0.80;68.00;;;;;;5077024;28;20042;-64
2021/04/07 04:07:23;;;;;;;6.38;2.50;;;0.80;67.70;;;;;;5078823;28;20032;-64
2021/04/07 04:09:53;;;;;;;4.75;2.13;;;0.80;67.50;;;;;;5075030;28;20516;-64
2021/04/07 04:12:24;;;;;;;3.03;2.25;;;0.90;67.30;;;;;;5075312;28;20111;-64
2021/04/07 04:14:57;;;;;;;3.67;2.20;;;0.80;67.20;;;;;;5080937;28;20521;-64
2021/04/07 04:17:27;;;;;;;3.47;2.20;;;0.80;67.20;;;;;;5082055;28;20044;-64
2021/04/07 04:19:53;;;;;;;2.88;2.05;;;0.80;67.00;;;;;;5083596;28;20111;-65
2021/04/07 04:22:18;;;;;;;2.72;2.03;;;0.90;66.80;;;;;;5086538;28;20127;-64
2021/04/07 04:24:47;;;;;;;3.28;2.13;;;0.90;66.70;;;;;;5081851;28;20177;-64
2021/04/07 04:27:17;;;;;;;3.63;2.70;;;0.90;66.70;;;;;;5100749;28;20028;-64
2021/04/07 04:29:45;;;;;;;2.70;2.15;;;0.90;66.90;;;;;;5082956;28;20181;-65
2021/04/07 04:32:13;;;;;;;2.88;2.10;;;0.90;66.70;;;;;;5086713;28;20039;-64
2021/04/07 04:34:41;;;;;;;2.85;2.20;;;0.90;66.50;;;;;;5088611;28;20036;-65
2021/04/07 04:37:09;;;;;;;2.97;2.30;;;0.90;66.60;;;;;;5070279;28;20042;-64
2021/04/07 04:39:37;;;;;;;4.28;2.60;;;0.90;66.60;;;;;;5080980;28;20616;-64
2021/04/07 04:42:06;;;;;;;3.72;1.98;;;0.90;66.60;;;;;;5081586;28;20445;-64
2021/04/07 04:44:33;;;;;;;4.57;2.45;;;0.90;66.80;;;;;;5085787;28;20036;-64
2021/04/07 04:47:01;;;;;;;3.78;2.22;;;0.90;66.70;;;;;;5085047;28;20032;-63
2021/04/07 04:49:27;;;;;;;3.90;2.30;;;0.90;66.60;;;;;;5086115;28;20071;-65
2021/04/07 04:51:55;;;;;;;3.22;2.42;;;0.90;66.60;;;;;;5087516;28;20039;-64
2021/04/07 04:54:25;;;;;;;3.25;2.95;;;0.90;66.80;;;;;;5087991;28;20505;-65
2021/04/07 04:56:53;;;;;;;3.80;2.78;;;0.90;66.70;;;;;;5086945;28;20040;-64
2021/04/07 04:59:26;;;;;;;3.35;2.67;;;1.00;66.70;;;;;;5086798;28;20035;-64
2021/04/07 05:01:59;;;;;;;4.55;2.70;;;1.00;66.80;;;;;;5079141;28;20028;-66
2021/04/07 05:04:27;;;;;;;2.63;2.42;;;1.00;66.60;;;;;;5085429;28;20024;-65
2021/04/07 05:06:55;;;;;;;2.88;2.50;;;1.00;66.40;;;;;;5086750;28;20036;-64
2021/04/07 05:09:20;;;;;;;3.30;2.58;;;1.00;66.30;;;;;;5102852;28;20077;-64
2021/04/07 05:11:53;;;;;;;3.45;2.03;;;1.10;66.20;;;;;;5081663;28;20438;-65
2021/04/07 05:14:21;;;;;;;3.63;2.05;;;1.10;66.00;;;;;;5087202;28;20480;-65
2021/04/07 05:16:51;;;;;;;3.67;2.10;;;1.10;65.60;;;;;;5083400;28;20036;-65
2021/04/07 05:19:20;;;;;;;2.80;2.15;;;1.10;65.40;;;;;;5086439;28;20028;-64
2021/04/07 05:21:50;;;;;;;4.68;2.42;;;1.10;65.40;;;;;;5087255;28;20028;-65
2021/04/07 05:24:16;;;;;;;6.22;2.50;;;1.10;65.10;;;;;;5086346;28;20504;-65
2021/04/07 05:26:46;;;;;;;3.78;2.55;;;1.10;64.80;;;;;;5084845;28;20043;-65
2021/04/07 05:29:12;;;;;;;4.07;2.28;;;1.10;64.70;;;;;;5086910;28;20028;-65
2021/04/07 05:31:45;;;;;;;4.65;2.65;;;1.10;64.60;;;;;;5078975;28;20580;-65
2021/04/07 05:34:13;;;;;;;4.45;2.53;;;1.10;64.70;;;;;;5086895;28;20059;-65
2021/04/07 05:36:38;;;;;;;4.50;3.30;;;1.10;64.90;;;;;;5084654;28;20032;-65
2021/04/07 05:39:04;;;;;;;3.38;2.90;;;1.10;64.90;;;;;;5084768;28;20505;-65
2021/04/07 05:41:34;;;;;;;2.88;2.50;;;1.10;64.90;;;;;;5083520;28;20029;-65
2021/04/07 05:44:05;;;;;;;3.65;2.70;;;1.00;64.70;;;;;;5083564;28;20055;-65
2021/04/07 05:46:35;;;;;;;4.80;2.60;;;1.00;64.60;;;;;;5081519;28;20033;-65
2021/04/07 05:49:08;;;;;;;7.28;4.28;;;1.00;64.90;;;;;;5086326;28;20093;-64
2021/04/07 05:51:36;;;;;;;5.95;3.92;;;1.10;64.90;;;;;;5086357;28;20028;-64
2021/04/07 05:54:06;;;;;;;6.30;3.70;;;1.00;64.70;;;;;;5084509;28;20520;-64
2021/04/07 05:56:34;;;;;;;6.75;4.15;;;1.10;64.80;;;;;;5084316;28;20032;-64
2021/04/07 05:59:00;;;;;;;5.25;3.20;;;1.10;64.80;;;;;;5085947;28;20032;-65
2021/04/07 06:01:28;;;;;;;5.43;3.22;;;1.00;64.50;;;;;;5086861;28;20039;-65
2021/04/07 06:03:58;;;;;;;6.43;3.83;;;1.00;64.00;;;;;;5085195;28;20115;-65
2021/04/07 06:06:29;;;;;;;6.18;2.78;;;1.00;63.90;;;;;;5084820;28;20028;-65
2021/04/07 06:08:58;;;;;;;5.13;3.42;;;1.00;63.90;;;;;;5087146;28;20548;-64
2021/04/07 06:11:23;;;;;;;6.30;3.20;;;1.00;63.80;;;;;;5082260;28;20040;-65
2021/04/07 06:13:49;;;;;;;5.03;2.70;;;1.00;63.90;;;;;;5083393;28;20043;-65
2021/04/07 06:16:19;;;;;;;5.50;2.78;;;1.10;64.20;;;;;;5086041;28;20039;-65
2021/04/07 06:18:52;;;;;;;6.57;3.22;;;1.10;64.50;;;;;;5086154;28;20504;-64
2021/04/07 06:21:22;;;;;;;3.00;2.35;;;1.10;64.50;;;;;;5084738;28;20028;-64
2021/04/07 06:23:50;;;;;;;4.85;2.50;;;1.20;64.40;;;;;;5086127;28;20040;-64
2021/04/07 06:26:23;;;;;;;3.90;2.53;;;1.20;64.30;;;;;;5082663;28;20103;-65
2021/04/07 06:28:48;;;;;;;4.28;2.20;;;1.30;64.20;;;;;;5085189;28;20044;-65
2021/04/07 06:31:16;;;;;;;4.15;2.40;;;1.30;64.00;;;;;;5085292;28;20039;-64
2021/04/07 06:33:44;;;;;;;4.68;2.50;;;1.40;63.70;;;;;;5087112;28;20035;-64
2021/04/07 06:36:13;;;;;;;4.00;2.70;;;1.40;63.70;;;;;;5105289;28;20046;-64
2021/04/07 06:38:43;;;;;;;3.60;2.15;;;1.40;63.70;;;;;;5090009;28;20028;-65
2021/04/07 06:41:09;;;;;;;5.93;2.35;;;1.40;63.70;;;;;;5090879;28;20115;-65
2021/04/07 06:43:38;;;;;;;4.55;2.53;;;1.50;63.90;;;;;;5088376;28;20032;-64
2021/04/07 06:46:11;;;;;;;5.45;3.90;;;1.50;63.90;;;;;;5090148;28;20078;-64
2021/04/07 06:48:42;;;;;;;6.57;3.75;;;1.60;63.80;;;;;;5105135;28;20390;-64
2021/04/07 06:51:10;;;;;;;2.92;2.15;;;1.60;63.60;;;;;;5089527;28;20044;-64
2021/04/07 06:53:37;;;;;;;5.07;2.97;;;1.70;63.70;;;;;;5088558;28;20043;-65
2021/04/07 06:56:07;;;;;;;4.32;2.97;;;1.70;63.70;;;;;;5088789;28;20064;-64
2021/04/07 06:58:37;;;;;;;2.30;2.10;;;1.70;63.50;;;;;;5086535;28;20028;-65
2021/04/07 07:01:07;;;;;;;2.78;2.08;;;1.70;63.30;;;;;;5087852;28;20024;-64
2021/04/07 07:03:37;;;;;;;5.63;2.22;;;1.70;63.30;;;;;;5077005;28;20111;-65
2021/04/07 07:06:06;;;;;;;4.82;2.33;;;1.70;63.20;;;;;;5086016;28;20499;-65
2021/04/07 07:08:32;;;;;;;3.20;2.30;;;1.70;63.20;;;;;;5089317;28;20116;-64
2021/04/07 07:11:09;;;;;;;4.65;2.03;;;1.70;63.30;;;;;;5087309;28;20114;-65
2021/04/07 07:13:40;;;;;;;2.50;2.00;;;1.70;63.50;;;;;;5087547;28;20024;-63
2021/04/07 07:16:11;;;;;;;2.60;1.92;;;1.80;63.30;;;;;;5089089;28;20039;-65
2021/04/07 07:18:42;;;;;;;3.85;2.20;;;1.70;63.20;;;;;;5087381;28;20465;-65
2021/04/07 07:21:17;;;;;;;4.93;2.58;;;1.80;63.20;;;;;;5089702;28;20036;-65
2021/04/07 07:23:47;;;;;;;6.20;3.20;;;1.80;63.20;;;;;;5086151;28;20496;-64
2021/04/07 07:26:19;;;;;;;2.97;2.38;;;1.80;64.10;;;;;;5087647;28;20114;-64
2021/04/07 07:28:50;;;;;;;3.95;2.40;;;1.80;63.20;;;;;;5087812;28;20036;-65
2021/04/07 07:31:24;;;;;;;2.85;2.28;;;1.90;63.00;;;;;;5088679;28;20032;-65
2021/04/07 07:33:56;;;;;;;3.45;2.13;;;1.80;62.90;;;;;;5088974;28;20024;-65
2021/04/07 07:36:23;;;;;;;2.25;1.98;;;1.90;62.80;;;;;;5087896;28;20032;-64
2021/04/07 07:38:52;;;;;;;5.55;2.20;;;1.90;62.80;;;;;;5089139;28;20093;-65
2021/04/07 07:41:35;;;;;;;3.53;2.13;;;1.90;62.60;;;;;;5088476;28;20033;-65
2021/04/07 07:44:03;;;;;;;4.28;2.67;;;1.90;61.90;;;;;;5088677;28;20032;-65
2021/04/07 07:46:36;;;;;;;4.45;2.47;;;2.00;61.60;;;;;;5085183;28;20434;-64
2021/04/07 07:49:11;;;;;;;5.57;2.10;;;1.90;60.90;;;;;;5089255;28;20060;-65
2021/04/07 07:51:48;;;;;;;3.63;1.83;;;1.90;62.30;;;;;;5087465;28;20032;-64
2021/04/07 07:54:19;;;;;;;2.50;1.70;;;1.90;61.10;;;;;;5087406;28;20043;-64
2021/04/07 07:56:49;;;;;;;6.40;1.60;;;2.00;60.20;;;;;;5103532;28;20043;-64
2021/04/07 07:59:45;;;;;;;3.72;1.60;;;2.00;59.20;;;;;;5087867;28;20048;-64
2021/04/07 08:02:24;;;;;;;2.25;1.13;;;2.00;57.10;;;;;;5075986;28;20028;-65
2021/04/07 08:04:53;;;;;;;3.60;1.40;;;2.00;57.40;;;;;;5086917;28;20024;-65
2021/04/07 08:07:24;;;;;;;3.47;1.35;;;2.00;58.00;;;;;;5084445;28;20114;-64
2021/04/07 08:09:50;;;;;;;3.42;1.77;;;2.10;58.40;;;;;;5088622;28;20497;-64
2021/04/07 08:12:24;;;;;;;6.10;1.60;;;2.10;57.60;;;;;;5085416;28;20032;-64
2021/04/07 08:14:50;;;;;;;2.95;1.48;;;2.10;57.30;;;;;;5087776;28;20036;-64
2021/04/07 08:17:19;;;;;;;8.35;1.20;;;2.20;57.10;;;;;;5087595;28;20064;-64
2021/04/07 08:19:45;;;;;;;1.83;0.90;;;2.20;56.00;;;;;;5088963;28;20032;-64
2021/04/07 08:22:14;;;;;;;2.53;1.08;;;2.30;55.60;;;;;;5087913;28;20130;-64
2021/04/07 08:24:42;;;;;;;5.97;1.50;;;2.40;55.90;;;;;;5086908;28;20027;-63
2021/04/07 08:27:12;;;;;;;3.00;1.35;;;2.40;56.50;;;;;;5086715;28;20040;-64
2021/04/07 08:29:40;;;;;;;4.80;1.20;;;2.40;56.10;;;;;;5087894;28;20583;-64
2021/04/07 08:32:11;;;;;;;3.15;1.25;;;2.50;55.70;;;;;;5087851;28;20048;-64
2021/04/07 08:34:41;;;;;;;2.30;1.50;;;2.60;56.20;;;;;;5088123;28;20025;-63
2021/04/07 08:37:17;;;;;;;3.17;1.20;;;2.60;56.10;;;;;;5085894;28;20078;-64
2021/04/07 08:39:47;;;;;;;2.78;1.52;;;2.70;56.00;;;;;;5103235;28;20052;-64
2021/04/07 08:42:16;;;;;;;4.97;1.88;;;2.70;56.10;;;;;;5087361;28;20496;-64
2021/04/07 08:44:51;;;;;;;4.50;2.00;;;2.80;56.20;;;;;;5087257;28;20060;-64
2021/04/07 08:47:33;;;;;;;5.70;1.85;;;2.80;56.40;;;;;;5087270;28;20485;-64
2021/04/07 08:50:06;;;;;;;5.13;1.50;;;2.90;56.70;;;;;;5087359;28;20040;-64
2021/04/07 08:52:50;;;;;;;3.22;1.20;;;3.00;55.90;;;;;;5086547;28;20063;-64
2021/04/07 08:55:26;;;;;;;4.33;1.87;;;3.10;55.10;;;;;;5086493;28;20523;-64
2021/04/07 08:58:07;;;;;;;6.45;1.55;;;3.10;54.70;;;;;;5087922;28;20411;-64
2021/04/07 09:00:40;;;;;;;4.20;1.40;;;3.20;53.60;;;;;;5079684;28;20032;-65
2021/04/07 09:03:23;;;;;;;1.85;1.10;;;3.20;54.20;;;;;;5086996;28;20032;-65
2021/04/07 09:05:52;;;;;;;3.20;1.33;;;3.20;53.60;;;;;;5087766;28;20040;-65
2021/04/07 09:08:26;;;;;;;2.58;0.80;;;3.20;53.10;;;;;;5086056;28;20029;-64
2021/04/07 09:10:54;;;;;;;2.97;0.82;;;3.20;53.00;;;;;;5083552;28;20332;-65
2021/04/07 09:13:29;;;;;;;3.22;1.58;;;3.20;52.10;;;;;;5086013;28;20493;-65
2021/04/07 09:16:06;;;;;;;5.65;1.15;;;3.20;53.30;;;;;;5086959;28;20055;-64
2021/04/07 09:18:39;;;;;;;2.35;1.08;;;3.30;53.80;;;;;;5077885;28;20028;-65
2021/04/07 09:21:09;;;;;;;2.67;1.50;;;3.40;54.40;;;;;;5086804;28;20512;-65
2021/04/07 09:23:39;;;;;;;2.35;1.25;;;3.50;53.30;;;;;;5086761;28;20120;-65
2021/04/07 09:26:19;;;;;;;4.22;1.67;;;3.50;53.30;;;;;;5086845;28;20043;-65
2021/04/07 09:28:47;;;;;;;4.47;1.50;;;3.60;53.30;;;;;;5087138;28;20064;-66
2021/04/07 09:31:30;;;;;;;5.18;1.60;;;3.70;53.10;;;;;;5085516;28;20028;-65
2021/04/07 09:33:58;;;;;;;4.13;1.48;;;3.70;52.90;;;;;;5086838;28;20447;-65
2021/04/07 09:36:35;;;;;;;2.95;1.60;;;3.70;52.40;;;;;;5085921;28;20032;-65
2021/04/07 09:39:13;;;;;;;2.65;1.13;;;3.60;53.20;;;;;;5084702;28;20044;-66
2021/04/07 09:41:44;;;;;;;4.43;1.80;;;3.60;52.40;;;;;;5083545;28;20127;-65
2021/04/07 09:44:15;;;;;;;2.55;1.50;;;3.60;52.10;;;;;;5081432;28;20500;-65
2021/04/07 09:47:00;;;;;;;3.85;1.55;;;3.60;52.60;;;;;;5079698;28;20036;-65
2021/04/07 09:49:30;;;;;;;3.17;1.42;;;3.60;52.60;;;;;;5078982;28;20032;-66
2021/04/07 09:52:01;;;;;;;1.63;1.08;;;3.60;53.50;;;;;;5078429;28;20074;-65
2021/04/07 09:54:30;;;;;;;5.05;1.20;;;3.60;53.50;;;;;;5075904;28;20100;-65
2021/04/07 09:57:02;;;;;;;2.45;1.30;;;3.60;53.50;;;;;;5083678;28;20042;-65
2021/04/07 09:59:39;;;;;;;4.30;1.30;;;3.60;53.90;;;;;;5082364;28;20120;-66
2021/04/07 10:02:14;;;;;;;4.78;1.13;;;3.70;53.80;;;;;;5080376;28;20028;-65
2021/04/07 10:04:44;;;;;;;5.35;1.70;;;3.80;53.50;;;;;;5082428;28;20024;-65
2021/04/07 10:07:19;;;;;;;2.72;1.20;;;3.80;53.20;;;;;;5100137;28;20117;-65
2021/04/07 10:09:55;;;;;;;2.13;1.00;;;3.80;52.10;;;;;;5084850;28;20028;-65
2021/04/07 10:12:25;;;;;;;3.10;1.17;;;3.80;51.70;;;;;;5079688;28;20028;-65
2021/04/07 10:14:57;;;;;;;1.65;1.10;;;3.80;51.60;;;;;;5084931;28;20032;-65
2021/04/07 10:17:29;;;;;;;1.05;0.90;;;3.80;51.70;;;;;;5084015;28;20039;-65
2021/04/07 10:20:05;;;;;;;1.17;0.98;;;3.80;50.80;;;;;;5085068;28;20572;-65
2021/04/07 10:22:31;;;;;;;2.90;1.10;;;3.90;51.00;;;;;;5084505;28;20020;-65
2021/04/07 10:25:11;;;;;;;1.33;1.00;;;3.90;51.30;;;;;;5086168;28;20025;-65
2021/04/07 10:27:44;;;;;;;1.88;0.88;;;4.00;52.10;;;;;;5086675;28;20032;-66
2021/04/07 10:30:17;;;;;;;2.75;1.20;;;4.00;51.70;;;;;;5084888;28;20056;-65
2021/04/07 10:32:59;;;;;;;2.83;0.82;;;4.10;51.40;;;;;;5084902;28;20044;-65
2021/04/07 10:35:30;;;;;;;2.03;0.93;;;4.10;51.50;;;;;;5085788;28;20032;-65
2021/04/07 10:38:03;;;;;;;1.67;0.93;;;4.20;51.80;;;;;;5077750;28;20036;-65
2021/04/07 10:40:32;;;;;;;1.52;1.00;;;4.20;51.40;;;;;;5085690;28;20064;-65
2021/04/07 10:43:13;;;;;;;2.80;0.90;;;4.30;50.20;;;;;;5086245;28;20036;-65
2021/04/07 10:45:57;;;;;;;2.13;0.90;;;4.30;49.80;;;;;;5082924;28;20046;-65
2021/04/07 10:48:26;;;;;;;1.48;0.90;;;4.30;49.70;;;;;;5081511;28;20043;-65
2021/04/07 10:50:57;;;;;;;3.42;1.27;;;4.30;50.30;;;;;;5081782;28;20401;-66
2021/04/07 10:53:32;;;;;;;1.20;1.00;;;4.30;50.50;;;;;;5083379;28;20079;-65
2021/04/07 10:56:03;;;;;;;1.95;1.17;;;4.30;50.80;;;;;;5076763;28;20036;-65
2021/04/07 10:58:31;;;;;;;4.90;1.95;;;4.40;51.80;;;;;;5085164;28;20040;-65
2021/04/07 11:01:04;;;;;;;1.83;1.20;;;4.40;51.50;;;;;;5086100;28;20058;-66
2021/04/07 11:03:35;;;;;;;2.17;0.70;;;4.40;51.90;;;;;;5084348;28;20107;-65
2021/04/07 11:06:08;;;;;;;1.92;0.70;;;4.40;49.80;;;;;;5085095;28;20028;-65
2021/04/07 11:08:40;;;;;;;2.22;1.05;;;4.40;48.90;;;;;;5084623;28;20082;-65
2021/04/07 11:11:06;;;;;;;3.17;1.40;;;4.50;50.50;;;;;;5069044;28;20066;-65
2021/04/07 11:13:35;;;;;;;4.78;1.33;;;4.50;50.50;;;;;;5080113;28;20552;-66
2021/04/07 11:16:12;;;;;;;3.17;1.40;;;4.60;50.70;;;;;;5084789;28;20039;-65
2021/04/07 11:18:42;;;;;;;1.85;1.08;;;4.60;50.60;;;;;;5085720;28;20501;-65
2021/04/07 11:21:11;;;;;;;4.55;1.92;;;4.70;50.50;;;;;;5088512;28;20032;-65
2021/04/07 11:23:41;;;;;;;2.15;1.50;;;4.70;51.00;;;;;;5089738;28;20029;-65
2021/04/07 11:26:12;;;;;;;1.88;1.00;;;4.80;50.60;;;;;;5087287;28;20040;-65
2021/04/07 11:28:42;;;;;;;3.55;1.30;;;4.80;49.70;;;;;;5088056;28;20036;-66
2021/04/07 11:31:11;;;;;;;1.65;1.00;;;4.90;49.50;;;;;;5089749;28;20116;-65
2021/04/07 11:34:12;;;;;;;1.50;0.98;;;4.90;50.10;;;;;;5089257;28;20551;-66
2021/04/07 11:39:31;;;;;;;3.95;1.10;;;5.10;48.00;;;;;;5085527;28;20039;-65
2021/04/07 11:44:33;;;;;;;2.22;1.02;;;5.20;48.80;;;;;;5087997;28;20036;-65
2021/04/07 11:47:02;;;;;;;4.70;1.20;;;5.20;47.60;;;;;;5089553;28;20028;-66
2021/04/07 11:49:36;;;;;;;2.67;1.30;;;5.20;47.70;;;;;;5084022;28;20047;-65
2021/04/07 11:52:10;;;;;;;2.03;1.23;;;5.30;47.60;;;;;;5085952;28;20032;-65
2021/04/07 11:54:38;;;;;;;2.40;1.30;;;5.20;47.20;;;;;;5082509;28;20056;-64
2021/04/07 11:57:06;;;;;;;2.97;1.35;;;5.20;48.60;;;;;;5086787;28;20527;-65
2021/04/07 11:59:34;;;;;;;3.08;1.70;;;5.20;48.90;;;;;;5085453;28;20020;-66
2021/04/07 12:02:02;;;;;;;4.40;1.60;;;5.30;49.40;;;;;;5085232;28;20445;-66
2021/04/07 12:04:31;;;;;;;3.30;1.75;;;5.30;49.80;;;;;;5082244;28;20112;-65
2021/04/07 12:07:01;;;;;;;2.70;1.33;;;5.20;49.60;;;;;;5085062;28;20817;-66
2021/04/07 12:09:31;;;;;;;1.85;1.40;;;5.40;49.70;;;;;;5085866;28;20539;-65
2021/04/07 12:11:57;;;;;;;1.50;1.00;;;5.40;48.70;;;;;;5083244;28;20028;-65
2021/04/07 12:14:24;;;;;;;2.38;1.13;;;5.40;48.40;;;;;;5082019;28;20028;-65
2021/04/07 12:16:50;;;;;;;2.17;1.20;;;5.40;48.80;;;;;;5086693;28;20397;-66
2021/04/07 12:19:18;;;;;;;2.40;1.42;;;5.50;49.20;;;;;;5087728;28;20043;-66
2021/04/07 12:21:44;;;;;;;2.80;1.38;;;5.50;49.30;;;;;;5086113;28;20566;-65
2021/04/07 12:24:12;;;;;;;4.50;1.00;;;5.60;49.50;;;;;;5088684;28;20078;-65
2021/04/07 12:26:40;;;;;;;6.10;1.00;;;5.60;48.70;;;;;;5087464;28;20032;-65
2021/04/07 12:29:10;;;;;;;2.35;1.00;;;5.60;47.90;;;;;;5087437;28;20404;-66
2021/04/07 12:31:38;;;;;;;1.60;1.02;;;5.60;47.40;;;;;;5087439;28;20128;-65
2021/04/07 12:34:04;;;;;;;3.58;1.52;;;5.60;46.80;;;;;;5087210;28;20040;-65
2021/04/07 12:36:32;;;;;;;4.13;1.73;;;5.70;47.40;;;;;;5087155;28;20032;-65
2021/04/07 12:39:05;;;;;;;3.63;1.40;;;5.70;47.40;;;;;;5086216;28;20044;-65
2021/04/07 12:44:11;;;;;;;3.17;1.50;;;5.70;47.30;;;;;;5087125;28;20893;-65
2021/04/07 12:46:36;;;;;;;3.55;1.23;;;5.80;47.00;;;;;;5085524;28;20028;-65
2021/04/07 12:49:04;;;;;;;2.25;1.27;;;5.80;46.60;;;;;;5084625;28;20040;-65
2021/04/07 12:51:32;;;;;;;3.25;1.20;;;5.80;47.00;;;;;;5086822;28;20033;-65
2021/04/07 12:54:02;;;;;;;1.40;1.00;;;5.80;45.70;;;;;;5088286;28;20060;-65
2021/04/07 12:56:49;;;;;;;2.53;1.33;;;5.70;45.70;;;;;;5084063;28;20063;-66
2021/04/07 12:59:14;;;;;;;1.98;1.30;;;5.70;45.50;;;;;;5086447;28;20752;-65
2021/04/07 13:01:40;;;;;;;2.50;1.25;;;5.70;46.30;;;;;;5087385;28;20068;-65
2021/04/07 13:04:08;;;;;;;2.17;1.17;;;5.70;45.90;;;;;;5086180;28;20134;-65
2021/04/07 13:06:36;;;;;;;2.97;1.02;;;5.80;46.30;;;;;;5082213;28;20517;-66
2021/04/07 13:09:02;;;;;;;2.13;1.27;;;5.80;45.60;;;;;;5087844;28;20043;-65
2021/04/07 13:11:28;;;;;;;3.05;1.20;;;5.90;45.20;;;;;;5080907;28;20598;-65
2021/04/07 13:13:58;;;;;;;2.22;1.23;;;5.90;45.10;;;;;;5087496;28;20119;-65
2021/04/07 13:16:25;;;;;;;2.55;1.20;;;5.90;45.40;;;;;;5083315;28;20055;-65
2021/04/07 13:18:58;;;;;;;4.82;1.30;;;6.00;45.00;;;;;;5084544;28;20067;-65
2021/04/07 13:21:24;;;;;;;4.57;1.00;;;6.00;45.30;;;;;;5085779;28;20493;-65